• Join FlightAware (Why Join?)
  • Login
  • US Flag 
08:26AM EDT


 

Airport Tracker/Info


-or-


 

Live Flight TrackerFlight Track Log ✈ DAL4213 ✈ 30-Jun-2013 ✈ KDTW - KPLN

Flight Track Log - Related Links

Times and Time Zones

All times are in EDT time to prevent confusion due to time zone crossing. See the DAL4213 flight status page for this flight to view local times or setup timezone preferences in your user account.

Time Position Orientation Groundspeed Altitude Reporting Facility
EDT Latitude Longitude Course Direction KTS MPH feet Rate Location/Type
08:53PM 42.2292 -83.3369 North 145 167 1,300  Level Cleveland Center
08:55PM 42.2817 -83.3225 12° North 196 226 3,500 1,980 Climbing Cleveland Center
08:56PM 42.3467 -83.3028 13° North 261 300 5,500 2,400 Climbing Cleveland Center
08:57PM 42.5710 -83.3500 North  Level FlightAware Approximate
08:57PM 42.4383 -83.3094 357° North 275 316 8,900  Level Cleveland Center
08:58PM 42.6637 -83.3500 North  Level FlightAware Approximate
08:58PM 42.5028 -83.3178 355° North 294 338 10,800  Level Cleveland Center
08:59PM 42.7564 -83.3500 North  Level FlightAware Approximate
08:59PM 42.5964 -83.3275 356° North 311 358 11,800  Level Cleveland Center
09:00PM 42.6939 -83.3403 354° North 334 384 13,900 1,860 Climbing Cleveland Center
09:01PM 42.7958 -83.3533 355° North 348 400 15,600 1,440 Climbing Cleveland Center
09:02PM 42.8978 -83.3636 356° North 358 412 16,800 1,260 Climbing Cleveland Center
09:03PM 42.9986 -83.4106 341° North 369 425 18,100 1,260 Climbing Cleveland Center
09:04PM 43.1017 -83.4636 339° North 379 436 19,400 900 Climbing Cleveland Center
09:05PM 43.2044 -83.5169 339° North 384 442 20,000 300 Climbing Cleveland Center
09:06PM 43.3133 -83.5733 339° North 398 458 20,000  Level Cleveland Center
09:07PM 43.4267 -83.6333 339° North 417 480 20,000  Level Cleveland Center
09:08PM 43.5758 -83.7092 340° North 425 489 20,000  Level Minneapolis Center
09:09PM 43.6858 -83.7669 339° North 424 488 20,000  Level Minneapolis Center
09:10PM 43.7956 -83.8244 339° North 425 489 20,000  Level Minneapolis Center
09:11PM 43.9406 -83.9008 339° North 425 489 20,000  Level Minneapolis Center
09:12PM 44.0483 -83.9586 339° North 420 483 20,000  Level Minneapolis Center
09:13PM 44.1650 -84.0208 339° North 420 483 20,000  Level Minneapolis Center
09:14PM 44.2728 -84.0789 339° North 419 482 20,000 -360 Level Minneapolis Center
09:15PM 44.3889 -84.1428 339° North 419 482 19,300 -1,200 Descending Minneapolis Center
09:16PM 44.4964 -84.2003 339° North 415 478 17,600 -1,860 Descending Minneapolis Center
09:18PM 44.6028 -84.2578 339° North 386 444 15,500 -1,920 Descending Minneapolis Center
09:19PM 44.7047 -84.3142 339° North 397 457 13,700 -1,680 Descending Minneapolis Center
09:20PM 44.8278 -84.3814 339° North 383 441 11,700 -1,560 Descending Minneapolis Center
09:21PM 44.9233 -84.4339 339° North 372 428 10,200 -1,200 Descending Minneapolis Center
09:22PM 45.0072 -84.4806 339° North 298 343 9,300 -1,380 Descending Minneapolis Center
09:23PM 45.0775 -84.5197 339° North 277 319 7,400 -1,980 Descending Minneapolis Center
09:24PM 45.1511 -84.5631 337° Northwest 269 310 5,300 -1,680 Descending Minneapolis Center
09:25PM 45.2175 -84.5983 339° North 260 299 4,000 -660 Descending Minneapolis Center
09:26PM 45.2869 -84.6381 338° Northwest 253 291 4,000 -120 Level Minneapolis Center
09:27PM 45.3531 -84.6747 339° North 257 296 3,800 -240 Descending Minneapolis Center